Time;durP1;ratioP1;P1;durP2;ratioP2;P2;SDS_P1;SDS_P2;PMS_P1;PMS_P2;Temp;Humidity;BMP_temperature;BMP_pressure;BME280_temperature;BME280_humidity;BME280_pressure;Samples;Min_cycle;Max_cycle;Signal;HPM_P1;HPM_P2
2022/01/17 00:05:32;;;;;;;18.55;11.68;;;;;;;2.84;66.60;98451.25;12844142;23;20020;-80
2022/01/17 00:10:53;;;;;;;16.25;10.98;;;;;;;2.82;66.42;98451.03;12824710;23;20079;-80
2022/01/17 00:16:21;;;;;;;17.35;11.65;;;;;;;2.81;66.54;98446.78;12810529;23;20336;-79
2022/01/17 00:21:45;;;;;;;16.10;10.82;;;;;;;2.82;66.20;98438.00;12833430;23;20012;-80
2022/01/17 00:27:07;;;;;;;16.73;11.10;;;;;;;2.84;66.67;98443.72;12828438;23;20020;-80
2022/01/17 00:32:28;;;;;;;18.23;11.30;;;;;;;2.85;66.63;98436.19;12828607;23;20019;-80
2022/01/17 00:37:49;;;;;;;18.13;11.38;;;;;;;2.94;66.07;98430.28;12829144;23;20093;-80
2022/01/17 00:43:11;;;;;;;17.45;11.90;;;;;;;2.93;66.25;98434.31;12830483;23;20012;-80
2022/01/17 00:48:31;;;;;;;18.70;11.65;;;;;;;2.96;66.07;98441.50;12809951;23;20016;-80
2022/01/17 00:53:52;;;;;;;16.70;10.98;;;;;;;2.97;66.64;98426.44;12808994;23;20096;-80
2022/01/17 00:59:13;;;;;;;19.48;11.75;;;;;;;3.02;66.14;98416.63;12807839;23;20044;-80
2022/01/17 01:04:34;;;;;;;17.17;10.63;;;;;;;2.98;66.61;98416.91;12810100;23;20075;-80
2022/01/17 01:10:03;;;;;;;18.67;11.63;;;;;;;2.99;66.19;98418.41;12810204;23;20021;-80
2022/01/17 01:21:36;;;;;;;18.85;11.85;;;;;;;3.02;66.25;98392.53;12855108;23;20016;-79
2022/01/17 01:32:33;;;;;;;19.17;12.52;;;;;;;2.95;65.86;98384.13;12816095;23;20025;-80
2022/01/17 01:37:54;;;;;;;18.60;11.73;;;;;;;2.95;66.42;98382.13;12853370;23;20193;-80
2022/01/17 01:43:15;;;;;;;18.35;12.38;;;;;;;2.92;66.48;98371.41;12808870;23;20020;-80
2022/01/17 01:48:37;;;;;;;18.00;10.73;;;;;;;2.95;66.25;98382.13;12808631;23;20040;-80
2022/01/17 01:53:58;;;;;;;16.70;10.60;;;;;;;3.00;66.49;98364.75;12829092;23;20120;-80
2022/01/17 01:59:22;;;;;;;17.42;11.18;;;;;;;3.00;66.41;98361.97;12809016;23;20040;-80
2022/01/17 02:04:43;;;;;;;16.85;11.15;;;;;;;3.02;66.31;98375.25;12810623;23;20036;-80
2022/01/17 02:10:05;;;;;;;16.80;9.95;;;;;;;3.04;66.70;98362.41;12809004;23;20021;-80
2022/01/17 02:15:26;;;;;;;15.00;10.18;;;;;;;3.05;66.59;98374.16;12828806;23;20092;-79
2022/01/17 02:21:09;;;;;;;17.15;10.77;;;;;;;3.10;66.91;98373.34;12809106;23;20036;-80
2022/01/17 02:26:28;;;;;;;16.55;10.43;;;;;;;3.09;66.75;98336.75;12833454;23;20040;-80
2022/01/17 02:31:49;;;;;;;15.48;9.68;;;;;;;3.13;66.34;98337.16;12849321;23;20029;-80
2022/01/17 02:37:10;;;;;;;15.68;10.18;;;;;;;3.13;67.04;98320.59;12829894;23;20024;-80
2022/01/17 02:42:33;;;;;;;13.48;9.45;;;;;;;3.10;66.68;98310.63;12813605;23;20335;-80
2022/01/17 02:47:54;;;;;;;14.57;9.48;;;;;;;3.09;66.71;98303.63;12854766;23;20071;-80
2022/01/17 02:53:15;;;;;;;13.73;9.48;;;;;;;3.12;66.65;98310.84;12832729;23;20500;-80
2022/01/17 02:58:36;;;;;;;12.90;8.93;;;;;;;3.15;67.08;98307.00;12811755;23;20059;-81
2022/01/17 03:03:58;;;;;;;12.00;8.88;;;;;;;3.15;67.10;98309.03;12811782;23;20507;-80
2022/01/17 03:09:19;;;;;;;13.48;8.85;;;;;;;3.11;67.29;98312.13;12811168;23;20020;-80
2022/01/17 03:14:40;;;;;;;13.52;8.52;;;;;;;3.13;67.04;98306.81;12832519;23;20108;-80
2022/01/17 03:20:01;;;;;;;12.30;8.32;;;;;;;3.18;67.63;98310.72;12831777;23;20040;-80
2022/01/17 03:25:22;;;;;;;12.63;8.57;;;;;;;3.26;67.76;98302.56;12829317;23;20092;-80
2022/01/17 03:30:43;;;;;;;14.48;9.00;;;;;;;3.23;67.67;98317.41;12831256;23;20025;-80
2022/01/17 03:36:05;;;;;;;11.65;8.40;;;;;;;3.26;67.77;98322.59;12830455;23;20012;-79
2022/01/17 03:41:26;;;;;;;14.43;9.15;;;;;;;3.32;67.81;98314.97;12810088;23;20040;-80
2022/01/17 03:46:47;;;;;;;12.68;8.25;;;;;;;3.31;67.48;98313.50;12830762;23;20116;-80
2022/01/17 03:52:08;;;;;;;10.38;7.38;;;;;;;3.34;67.77;98319.97;12809067;23;20443;-80
2022/01/17 03:57:29;;;;;;;11.52;7.95;;;;;;;3.36;68.12;98331.19;12829035;23;20017;-80
2022/01/17 04:02:50;;;;;;;12.23;8.23;;;;;;;3.37;67.91;98303.06;12800946;23;20088;-80
2022/01/17 04:08:15;;;;;;;11.63;7.80;;;;;;;3.31;68.06;98285.16;12849738;23;20012;-80
2022/01/17 04:13:36;;;;;;;;;;;;;;;3.27;68.08;98270.91;12830433;23;20092;-80
2022/01/17 04:18:56;;;;;;;11.00;6.75;;;;;;;3.24;67.91;98288.56;12850033;23;19916;-80
2022/01/17 04:24:18;;;;;;;10.00;6.72;;;;;;;3.25;68.73;98273.47;12808577;23;20031;-80
2022/01/17 04:29:39;;;;;;;9.50;7.00;;;;;;;3.23;68.03;98273.28;12870645;23;20522;-80
2022/01/17 04:34:59;;;;;;;8.48;6.70;;;;;;;3.23;67.98;98251.19;12850200;23;20036;-80
2022/01/17 04:40:20;;;;;;;9.68;6.90;;;;;;;3.14;68.32;98222.78;12869336;23;20020;-80
2022/01/17 04:45:41;;;;;;;9.88;6.93;;;;;;;3.08;68.56;98244.19;12829903;23;20020;-80
2022/01/17 04:51:04;;;;;;;10.63;6.90;;;;;;;3.05;68.40;98259.06;12810199;23;20047;-80
2022/01/17 04:56:30;;;;;;;9.88;6.40;;;;;;;3.03;68.53;98217.50;12830906;23;20100;-80
2022/01/17 05:02:02;;;;;;;9.68;6.78;;;;;;;3.03;68.78;98250.59;12853847;23;20015;-80
2022/01/17 05:07:22;;;;;;;10.25;6.97;;;;;;;3.02;69.12;98243.59;12829465;23;20040;-79
2022/01/17 05:12:44;;;;;;;10.63;7.38;;;;;;;3.07;68.84;98253.75;12809358;23;20017;-80
2022/01/17 05:23:32;;;;;;;11.20;6.55;;;;;;;3.09;68.98;98248.47;12851591;23;20499;-80
2022/01/17 05:28:53;;;;;;;8.70;5.90;;;;;;;3.19;69.00;98242.53;12848133;23;20021;-80
2022/01/17 05:34:13;;;;;;;6.82;5.47;;;;;;;3.20;69.21;98241.97;12846065;23;20016;-79
2022/01/17 05:39:35;;;;;;;8.15;6.00;;;;;;;3.26;68.45;98214.25;12804215;23;20048;-80
2022/01/17 05:44:56;;;;;;;7.22;5.38;;;;;;;3.23;68.63;98185.72;12830103;23;20023;-80
2022/01/17 05:50:17;;;;;;;7.25;5.78;;;;;;;3.23;68.52;98198.78;12804265;23;20024;-80
2022/01/17 05:55:39;;;;;;;7.43;5.68;;;;;;;3.24;68.68;98208.53;12828699;23;20483;-80
2022/01/17 06:01:00;;;;;;;6.53;4.97;;;;;;;3.26;68.63;98228.06;12826092;23;20020;-79
2022/01/17 06:06:21;;;;;;;7.97;5.28;;;;;;;3.33;68.58;98232.94;12825686;23;20016;-79
2022/01/17 06:11:42;;;;;;;6.55;4.88;;;;;;;3.37;68.87;98233.34;12825991;23;20024;-80
2022/01/17 06:17:03;;;;;;;7.15;4.70;;;;;;;3.40;68.80;98193.66;12783634;23;20016;-80
2022/01/17 06:22:24;;;;;;;6.25;4.55;;;;;;;3.42;68.37;98204.88;12802617;23;20036;-79
2022/01/17 06:27:46;;;;;;;7.72;4.05;;;;;;;3.51;68.18;98209.22;12823491;23;20016;-80
2022/01/17 06:33:07;;;;;;;4.50;3.22;;;;;;;3.60;68.04;98233.59;12806000;23;20070;-80
2022/01/17 06:38:28;;;;;;;4.50;2.60;;;;;;;3.69;67.79;98214.56;12804848;23;20072;-80
2022/01/17 06:43:48;;;;;;;3.90;2.42;;;;;;;3.74;66.94;98226.75;12824624;23;20041;-80
2022/01/17 06:49:10;;;;;;;3.83;2.65;;;;;;;3.76;67.48;98223.44;12804600;23;20400;-79
2022/01/17 06:54:34;;;;;;;3.13;2.17;;;;;;;3.83;66.98;98195.16;12822919;23;20380;-79
2022/01/17 06:59:55;;;;;;;3.08;2.00;;;;;;;3.85;66.41;98198.88;12821128;23;20053;-79
2022/01/17 07:05:17;;;;;;;3.70;2.50;;;;;;;3.89;66.50;98209.59;12823125;23;20439;-80
2022/01/17 07:10:38;;;;;;;3.30;2.20;;;;;;;3.96;66.70;98206.19;12814131;23;20016;-79
2022/01/17 07:16:00;;;;;;;2.88;1.98;;;;;;;3.98;65.99;98256.84;12780001;23;20443;-79
2022/01/17 07:21:22;;;;;;;2.45;1.88;;;;;;;3.97;65.98;98269.16;12841738;23;20087;-79
2022/01/17 07:26:43;;;;;;;3.33;2.15;;;;;;;4.02;66.18;98318.00;12805745;23;20016;-79
2022/01/17 07:32:05;;;;;;;3.47;2.00;;;;;;;4.09;65.54;98299.28;12845407;23;20430;-80
2022/01/17 07:37:27;;;;;;;2.00;1.42;;;;;;;4.12;65.29;98292.69;12826181;23;20355;-79
2022/01/17 07:42:48;;;;;;;2.80;2.00;;;;;;;4.15;65.03;98259.22;12803804;23;20039;-80
2022/01/17 07:48:33;;;;;;;3.13;2.15;;;;;;;4.18;65.55;98236.00;12824217;23;20087;-79
2022/01/17 07:53:53;;;;;;;4.22;2.50;;;;;;;4.20;64.83;98263.09;12850284;23;20071;-80
2022/01/17 07:59:14;;;;;;;3.13;2.03;;;;;;;4.20;64.74;98258.31;12846022;23;20379;-80
2022/01/17 08:04:36;;;;;;;3.80;2.20;;;;;;;4.26;64.76;98247.88;12810033;23;20336;-79
2022/01/17 08:09:57;;;;;;;4.22;2.35;;;;;;;4.34;64.60;98247.19;12823289;23;20020;-80
2022/01/17 08:15:18;;;;;;;3.42;1.80;;;;;;;4.41;64.24;98240.97;12827871;23;20443;-80
2022/01/17 08:20:39;;;;;;;3.72;2.03;;;;;;;4.53;64.20;98231.84;12827355;23;20068;-78
2022/01/17 08:26:03;;;;;;;3.53;2.30;;;;;;;4.68;63.80;98197.31;12799916;23;20075;-80
2022/01/17 08:31:24;;;;;;;4.28;2.17;;;;;;;4.67;63.53;98173.69;12804904;23;20016;-80
2022/01/17 08:36:50;;;;;;;3.70;1.55;;;;;;;4.79;63.49;98156.25;12805667;23;20020;-80
2022/01/17 08:42:12;;;;;;;2.90;1.90;;;;;;;4.91;62.72;98161.44;12804398;23;20024;-80
2022/01/17 08:47:34;;;;;;;3.33;1.75;;;;;;;4.90;62.52;98144.13;12825966;23;20013;-80
2022/01/17 08:52:55;;;;;;;3.47;2.03;;;;;;;4.84;62.56;98154.63;12826713;23;20020;-80
2022/01/17 08:58:17;;;;;;;3.15;1.80;;;;;;;4.94;62.16;98158.34;12805134;23;20043;-80
2022/01/17 09:03:39;;;;;;;3.42;1.55;;;;;;;5.16;61.79;98143.13;12833214;23;20514;-80
2022/01/17 09:09:00;;;;;;;6.60;2.45;;;;;;;5.20;61.56;98156.59;12782126;23;20103;-80
2022/01/17 09:14:22;;;;;;;3.80;2.00;;;;;;;5.49;61.37;98157.22;12802688;23;20078;-80
2022/01/17 09:19:48;;;;;;;5.47;2.50;;;;;;;5.93;60.79;98164.16;12844904;23;20012;-80
2022/01/17 09:25:11;;;;;;;5.07;2.50;;;;;;;6.24;59.58;98167.66;12822436;23;20070;-80
2022/01/17 09:30:35;;;;;;;;;;;;;;;6.21;58.91;98159.72;12823573;23;20012;-80
2022/01/17 09:35:56;;;;;;;5.03;2.63;;;;;;;5.98;59.58;98143.84;12822591;23;19990;-80
2022/01/17 09:41:18;;;;;;;7.53;2.90;;;;;;;5.77;59.38;98134.91;12833533;23;20020;-79
2022/01/17 09:46:45;;;;;;;4.60;3.03;;;;;;;5.53;59.87;98136.19;12822554;23;20028;-79
2022/01/17 09:58:05;;;;;;;4.55;2.67;;;;;;;6.42;59.02;98151.94;12808068;23;20024;-79
2022/01/17 10:03:26;;;;;;;8.68;2.85;;;;;;;6.50;58.59;98149.16;12821144;23;20028;-79
2022/01/17 10:08:48;;;;;;;4.63;2.65;;;;;;;6.50;58.12;98124.19;12814838;23;20025;-81
2022/01/17 10:14:23;;;;;;;7.45;2.83;;;;;;;6.75;57.04;98110.41;12802317;23;20019;-80
2022/01/17 10:19:45;;;;;;;5.35;2.63;;;;;;;8.44;56.21;98099.66;12819012;23;20375;-78
2022/01/17 10:31:23;;;;;;;6.40;2.50;;;;;;;7.28;54.73;98098.34;12805581;23;20050;-80
2022/01/17 10:36:44;;;;;;;6.05;2.50;;;;;;;6.61;55.94;98093.28;12837233;23;20510;-79
2022/01/17 10:42:48;;;;;;;2.88;1.77;;;;;;;6.43;56.26;98108.28;12799071;23;20016;-78
2022/01/17 10:48:10;;;;;;;3.10;1.60;;;;;;;6.10;56.71;98115.75;12840632;23;20021;-80
2022/01/17 10:53:32;;;;;;;4.35;1.90;;;;;;;6.01;56.94;98101.16;12841404;23;20022;-80
2022/01/17 10:59:05;;;;;;;4.20;2.00;;;;;;;6.00;57.13;98102.47;12825171;23;20020;-77
2022/01/17 11:04:37;;;;;;;3.63;1.90;;;;;;;6.29;56.92;98105.00;12809054;23;20099;-77
2022/01/17 11:10:02;;;;;;;4.82;1.63;;;;;;;6.29;56.75;98093.91;12822981;23;20439;-78
2022/01/17 11:15:26;;;;;;;6.47;1.73;;;;;;;6.32;56.91;98121.25;12863511;23;20391;-78
2022/01/17 11:20:50;;;;;;;3.70;1.75;;;;;;;6.37;56.93;98093.88;12801961;23;20023;-77
2022/01/17 11:26:11;;;;;;;3.90;1.53;;;;;;;6.57;56.66;98085.34;12801543;23;20016;-77
2022/01/17 11:31:33;;;;;;;2.70;1.58;;;;;;;7.00;56.26;98086.25;12803453;23;20032;-78
2022/01/17 11:36:54;;;;;;;3.45;1.30;;;;;;;7.61;54.91;98087.94;12821956;23;20036;-78
2022/01/17 11:42:49;;;;;;;3.38;1.20;;;;;;;7.52;54.18;98036.50;12819728;23;20016;-77
2022/01/17 11:48:19;;;;;;;3.42;1.33;;;;;;;6.86;54.89;98062.84;12799352;23;20082;-77
2022/01/17 11:53:45;;;;;;;3.22;1.00;;;;;;;6.55;55.95;98040.03;12821088;23;20109;-78
2022/01/17 11:59:43;;;;;;;2.88;1.60;;;;;;;6.39;56.65;98066.34;12820625;23;20019;-80
2022/01/17 12:05:07;;;;;;;3.28;1.00;;;;;;;6.24;56.83;98087.25;12831592;23;20012;-80
2022/01/17 12:10:37;;;;;;;3.63;1.40;;;;;;;6.13;56.94;98092.47;12826626;23;20071;-80
2022/01/17 12:16:07;;;;;;;5.57;1.35;;;;;;;6.13;57.25;98061.97;12828179;23;20091;-80
2022/01/17 12:21:32;;;;;;;3.30;0.98;;;;;;;5.98;57.25;98071.03;12808086;23;20496;-80
2022/01/17 12:27:03;;;;;;;3.45;0.85;;;;;;;5.87;57.72;98033.34;12850989;23;20092;-80
2022/01/17 12:32:24;;;;;;;3.53;1.15;;;;;;;5.81;58.06;98032.81;12857094;23;20017;-81
2022/01/17 12:37:56;;;;;;;2.63;1.45;;;;;;;5.73;58.16;98045.91;12880588;23;20023;-80
2022/01/17 12:43:23;;;;;;;2.75;1.20;;;;;;;5.54;58.86;98059.41;12810761;23;20546;-79
2022/01/17 12:48:48;;;;;;;3.72;1.00;;;;;;;5.40;59.16;98078.19;12846811;23;20020;-77
2022/01/17 12:54:15;;;;;;;2.53;1.30;;;;;;;5.42;59.66;98053.50;12798848;23;20028;-81
2022/01/17 12:59:36;;;;;;;3.10;1.20;;;;;;;5.52;59.55;98026.00;12848513;23;20487;-79
2022/01/17 13:04:58;;;;;;;1.75;0.80;;;;;;;5.58;59.70;98051.44;12806130;23;20013;-80
2022/01/17 13:10:19;;;;;;;2.00;0.70;;;;;;;5.74;59.85;98064.00;12830137;23;20232;-81
2022/01/17 13:15:50;;;;;;;1.40;0.63;;;;;;;5.90;59.45;98068.28;12875562;23;20068;-80
2022/01/17 13:21:12;;;;;;;2.00;0.77;;;;;;;5.96;59.65;98068.81;12827040;23;20013;-81
2022/01/17 13:26:41;;;;;;;2.80;0.90;;;;;;;5.95;59.42;98064.56;12846879;23;20017;-81
2022/01/17 13:32:05;;;;;;;2.88;0.95;;;;;;;5.81;60.19;98068.09;12838090;23;20075;-80
2022/01/17 13:37:27;;;;;;;2.30;0.73;;;;;;;5.74;60.46;98064.00;12840662;23;20082;-80
2022/01/17 13:42:56;;;;;;;1.88;0.88;;;;;;;5.65;60.66;98061.81;12814274;23;20707;-82
2022/01/17 13:48:20;;;;;;;1.00;0.57;;;;;;;5.61;60.79;98064.94;12830406;23;20016;-81
2022/01/17 13:53:41;;;;;;;2.15;0.80;;;;;;;5.66;61.14;98054.97;12795412;23;20036;-82
2022/01/17 13:59:04;;;;;;;3.97;0.73;;;;;;;5.67;61.46;98084.88;12823553;23;20016;-80
2022/01/17 14:04:29;;;;;;;3.30;0.80;;;;;;;5.50;61.72;98104.09;12837216;23;20048;-78
2022/01/17 14:09:51;;;;;;;1.75;0.70;;;;;;;5.40;61.88;98081.72;12841001;23;20042;-77
2022/01/17 14:15:13;;;;;;;1.52;0.80;;;;;;;5.37;62.61;98087.63;12819402;23;20021;-78
2022/01/17 14:20:34;;;;;;;1.88;0.70;;;;;;;5.35;62.53;98099.25;12822267;23;20020;-79
2022/01/17 14:25:57;;;;;;;2.35;0.95;;;;;;;5.32;63.12;98110.69;12803617;23;20013;-81
2022/01/17 14:31:19;;;;;;;3.05;1.20;;;;;;;5.26;63.80;98123.94;12843892;23;20013;-78
2022/01/17 14:36:42;;;;;;;2.45;1.05;;;;;;;5.17;64.13;98139.78;12853739;23;20032;-81
2022/01/17 14:42:11;;;;;;;2.00;1.02;;;;;;;5.06;64.39;98167.06;12832934;23;20091;-79
2022/01/17 14:47:43;;;;;;;2.13;1.00;;;;;;;4.97;65.61;98201.50;12816714;23;20443;-79
2022/01/17 14:53:13;;;;;;;3.33;1.10;;;;;;;4.95;65.43;98222.72;12812684;23;20107;-81
2022/01/17 15:04:15;;;;;;;1.30;0.73;;;;;;;4.96;66.08;98346.66;12833467;23;20432;-80
2022/01/17 15:09:39;;;;;;;1.25;0.40;;;;;;;4.79;66.18;98388.59;12845650;23;20020;-80
2022/01/17 15:15:06;;;;;;;0.75;0.20;;;;;;;4.43;66.08;98393.22;12813557;23;20025;-80
2022/01/17 15:20:28;;;;;;;1.85;0.30;;;;;;;3.85;67.04;98405.25;12824880;23;20360;-77
2022/01/17 15:25:50;;;;;;;0.50;0.20;;;;;;;3.67;67.89;98426.97;12824091;23;20082;-81
2022/01/17 15:31:14;;;;;;;1.05;0.30;;;;;;;3.55;69.30;98447.03;12849070;23;20028;-81
2022/01/17 15:36:36;;;;;;;1.35;0.22;;;;;;;3.44;68.44;98442.44;12842972;23;20033;-81
2022/01/17 15:42:03;;;;;;;0.30;0.13;;;;;;;3.36;68.54;98442.34;12850739;23;20016;-81
2022/01/17 15:47:25;;;;;;;1.70;0.20;;;;;;;3.32;70.01;98460.47;12828711;23;20044;-80
2022/01/17 15:52:48;;;;;;;1.13;0.20;;;;;;;3.32;69.46;98463.25;12816246;23;20114;-81
2022/01/17 15:58:09;;;;;;;1.27;0.30;;;;;;;3.45;69.51;98461.22;12798004;23;20020;-81
2022/01/17 16:03:30;;;;;;;2.47;0.60;;;;;;;3.59;70.19;98437.16;12833026;23;20064;-81
2022/01/17 16:08:53;;;;;;;2.03;0.65;;;;;;;3.69;69.55;98456.81;12857920;23;20013;-81
2022/01/17 16:14:14;;;;;;;1.88;0.57;;;;;;;3.80;69.43;98475.19;12866330;23;20051;-81
2022/01/17 16:19:37;;;;;;;2.60;0.55;;;;;;;3.87;69.29;98504.94;12855529;23;20020;-82
2022/01/17 16:25:13;;;;;;;3.38;0.70;;;;;;;3.89;69.62;98513.41;12854905;23;20020;-81
2022/01/17 16:30:35;;;;;;;3.67;0.60;;;;;;;3.92;69.27;98539.97;12848806;23;20023;-81
2022/01/17 16:35:56;;;;;;;2.10;0.50;;;;;;;3.91;69.64;98549.53;12807308;23;20147;-80
2022/01/17 16:41:17;;;;;;;1.88;0.45;;;;;;;3.99;69.52;98572.50;12827668;23;20020;-80
2022/01/17 16:46:41;;;;;;;4.32;0.60;;;;;;;4.01;69.63;98594.81;12843141;23;20047;-78
2022/01/17 16:52:04;;;;;;;3.67;0.70;;;;;;;4.03;69.74;98634.44;12801474;23;20347;-78
2022/01/17 16:57:26;;;;;;;2.63;1.00;;;;;;;4.07;70.02;98636.16;12827436;23;20017;-82
2022/01/17 17:02:47;;;;;;;3.53;0.85;;;;;;;4.07;70.08;98655.50;12836022;23;20044;-78
2022/01/17 17:08:09;;;;;;;2.92;0.70;;;;;;;4.08;70.17;98657.72;12821158;23;20012;-78
2022/01/17 17:13:30;;;;;;;3.83;0.80;;;;;;;4.08;70.10;98671.53;12805469;23;20465;-78
2022/01/17 17:18:51;;;;;;;5.38;1.13;;;;;;;4.05;70.24;98682.88;12841602;23;20359;-78
2022/01/17 17:24:13;;;;;;;4.55;1.00;;;;;;;4.02;70.15;98687.47;12823335;23;20023;-78
2022/01/17 17:29:39;;;;;;;7.63;1.40;;;;;;;4.03;70.25;98700.00;12843189;23;20447;-78
2022/01/17 17:35:00;;;;;;;4.07;1.00;;;;;;;4.03;70.18;98711.06;12820464;23;20032;-78
2022/01/17 17:40:21;;;;;;;7.30;1.02;;;;;;;3.99;70.49;98732.72;12819468;23;20436;-77
2022/01/17 17:45:42;;;;;;;6.15;1.63;;;;;;;3.96;70.44;98734.53;12840112;23;20431;-78
2022/01/17 17:51:06;;;;;;;3.83;0.88;;;;;;;3.99;70.80;98755.56;12819673;23;20020;-77
2022/01/17 17:56:28;;;;;;;6.95;1.20;;;;;;;4.02;70.49;98786.94;12825794;23;20084;-81
2022/01/17 18:01:50;;;;;;;4.97;1.52;;;;;;;4.04;70.74;98798.19;12838878;23;20025;-78
2022/01/17 18:07:26;;;;;;;6.60;0.98;;;;;;;4.10;70.34;98820.97;12846776;23;20012;-78
2022/01/17 18:12:48;;;;;;;3.50;1.40;;;;;;;4.09;70.50;98815.97;12842770;23;20020;-78
2022/01/17 18:18:10;;;;;;;5.63;1.50;;;;;;;4.07;70.91;98824.03;12860649;23;20024;-79
2022/01/17 18:23:31;;;;;;;5.50;1.40;;;;;;;4.07;70.82;98827.56;12799062;23;20016;-78
2022/01/17 18:28:53;;;;;;;5.65;0.95;;;;;;;4.10;70.68;98836.81;12840546;23;20100;-78
2022/01/17 18:34:14;;;;;;;4.32;1.00;;;;;;;4.14;70.90;98848.28;12799221;23;20021;-78
2022/01/17 18:39:35;;;;;;;6.95;1.35;;;;;;;4.14;70.98;98876.66;12839754;23;20331;-78
2022/01/17 18:44:56;;;;;;;4.60;1.10;;;;;;;4.15;71.07;98882.94;12819542;23;20028;-78
2022/01/17 18:50:19;;;;;;;6.97;1.27;;;;;;;4.16;71.38;98890.72;12798582;23;20086;-79
2022/01/17 18:55:40;;;;;;;6.22;1.48;;;;;;;4.15;71.27;98905.81;12817929;23;20443;-79
2022/01/17 19:01:01;;;;;;;7.63;3.05;;;;;;;4.11;70.97;98905.34;12776365;23;20020;-78
2022/01/17 19:06:22;;;;;;;6.97;1.83;;;;;;;4.07;70.80;98899.41;12882924;23;20036;-79
2022/01/17 19:11:43;;;;;;;8.00;1.77;;;;;;;3.98;71.25;98899.78;12786688;23;20335;-77
2022/01/17 19:17:09;;;;;;;8.00;2.05;;;;;;;3.67;71.14;98895.63;12840081;23;20016;-80
2022/01/17 19:22:30;;;;;;;6.60;1.95;;;;;;;3.36;71.06;98910.75;12825884;23;20493;-78
2022/01/17 19:27:51;;;;;;;6.63;2.17;;;;;;;3.12;71.54;98904.00;12822201;23;20047;-79
2022/01/17 19:33:12;;;;;;;5.10;2.00;;;;;;;2.94;71.23;98910.16;12803758;23;20035;-80
2022/01/17 19:38:33;;;;;;;7.10;2.10;;;;;;;2.82;71.80;98928.81;12831888;23;20028;-81
2022/01/17 19:43:55;;;;;;;9.25;2.47;;;;;;;2.74;72.23;98943.69;12827432;23;20088;-81
2022/01/17 19:49:17;;;;;;;8.45;3.33;;;;;;;2.76;72.51;98963.97;12846098;23;20017;-80
2022/01/17 19:54:38;;;;;;;9.07;2.95;;;;;;;2.89;72.39;98979.91;12846557;23;20043;-80
2022/01/17 20:00:00;;;;;;;11.32;3.10;;;;;;;3.06;71.63;99002.59;12827283;23;20012;-80
2022/01/17 20:05:41;;;;;;;7.68;2.28;;;;;;;3.04;71.48;99018.19;12830912;23;20023;-80
2022/01/17 20:11:02;;;;;;;9.48;1.90;;;;;;;2.88;70.89;99033.56;12806675;23;20055;-80
2022/01/17 20:16:23;;;;;;;9.25;2.10;;;;;;;2.82;71.08;99046.66;12827635;23;20058;-80
2022/01/17 20:21:44;;;;;;;5.28;1.67;;;;;;;2.79;70.66;99062.19;12803751;23;20020;-78
2022/01/17 20:27:05;;;;;;;9.05;2.33;;;;;;;2.71;70.89;99068.78;12863832;23;20017;-77
2022/01/17 20:32:28;;;;;;;14.63;2.78;;;;;;;2.58;71.28;99074.84;12802112;23;20067;-78
2022/01/17 20:37:49;;;;;;;10.13;2.58;;;;;;;2.43;70.84;99072.41;12842577;23;20016;-78
2022/01/17 20:43:10;;;;;;;8.60;2.15;;;;;;;2.32;71.21;99086.25;12821275;23;20085;-79
2022/01/17 20:48:32;;;;;;;8.90;2.60;;;;;;;2.22;71.09;99080.28;12809308;23;20013;-80
2022/01/17 20:53:53;;;;;;;10.27;2.65;;;;;;;2.17;71.15;99094.03;12823988;23;20031;-80
2022/01/17 20:59:14;;;;;;;10.30;2.88;;;;;;;2.07;71.33;99095.56;12792109;23;20033;-82
2022/01/17 21:04:37;;;;;;;12.18;2.55;;;;;;;2.03;71.30;99106.09;12833456;23;20017;-81
2022/01/17 21:09:58;;;;;;;11.35;2.67;;;;;;;2.07;70.81;99128.63;12844833;23;20021;-80
2022/01/17 21:15:20;;;;;;;11.10;3.30;;;;;;;2.09;71.29;99135.13;12862151;23;20712;-82
2022/01/17 21:20:41;;;;;;;10.07;2.38;;;;;;;2.00;70.82;99133.38;12838766;23;20096;-81
2022/01/17 21:26:02;;;;;;;10.18;3.38;;;;;;;1.97;70.83;99147.44;12858771;23;20095;-81
2022/01/17 21:31:24;;;;;;;13.23;3.28;;;;;;;1.89;70.97;99147.19;12840031;23;20021;-80
2022/01/17 21:36:48;;;;;;;11.40;2.50;;;;;;;1.80;70.80;99135.66;12857109;23;20040;-82
2022/01/17 21:42:12;;;;;;;;;;;;;;;1.78;70.68;99146.44;12839038;23;20020;-81
2022/01/17 21:47:33;;;;;;;10.75;2.92;;;;;;;1.70;70.77;99154.44;12858907;23;19922;-81
2022/01/17 21:52:59;;;;;;;11.75;3.13;;;;;;;1.69;69.99;99166.69;12838895;23;20102;-82
2022/01/17 21:58:20;;;;;;;12.40;3.22;;;;;;;1.63;70.56;99155.69;12840218;23;20084;-81
2022/01/17 22:03:41;;;;;;;8.75;2.40;;;;;;;1.54;70.20;99157.94;12816963;23;20261;-80
2022/01/17 22:09:03;;;;;;;10.43;3.17;;;;;;;1.49;69.97;99155.94;12857796;23;20047;-80
2022/01/17 22:14:27;;;;;;;11.70;3.55;;;;;;;1.49;70.44;99164.19;12839752;23;20032;-80
2022/01/17 22:19:48;;;;;;;11.50;2.75;;;;;;;1.44;70.28;99163.66;12839193;23;20028;-81
2022/01/17 22:25:09;;;;;;;10.70;3.33;;;;;;;1.44;69.95;99182.19;12839539;23;20019;-81
2022/01/17 22:30:30;;;;;;;13.95;3.33;;;;;;;1.42;70.24;99192.94;12839737;23;20024;-80
2022/01/17 22:35:51;;;;;;;13.35;4.35;;;;;;;1.42;69.90;99210.19;12818861;23;20025;-81
2022/01/17 22:41:12;;;;;;;12.05;3.70;;;;;;;1.34;69.94;99197.41;12821623;23;20020;-80
2022/01/17 22:46:39;;;;;;;15.10;4.47;;;;;;;1.27;70.23;99209.69;12862032;23;20036;-81
2022/01/17 22:52:00;;;;;;;11.05;3.00;;;;;;;1.22;69.69;99196.66;12843443;23;20099;-81
2022/01/17 22:57:21;;;;;;;10.32;2.70;;;;;;;1.14;69.74;99201.13;12803599;23;20028;-81
2022/01/17 23:02:42;;;;;;;10.65;2.38;;;;;;;1.18;69.11;99203.66;12839229;23;20336;-81
2022/01/17 23:08:03;;;;;;;11.20;2.92;;;;;;;1.11;69.34;99208.38;12823972;23;20022;-81
2022/01/17 23:13:27;;;;;;;9.60;2.50;;;;;;;1.11;69.01;99191.13;12825026;23;20036;-81
2022/01/17 23:19:45;;;;;;;11.27;3.20;;;;;;;1.11;68.84;99196.63;12846758;23;20143;-81
2022/01/17 23:24:29;;;;;;;10.20;2.88;;;;;;;1.06;69.52;99200.09;12834520;23;20016;-81
2022/01/17 23:29:58;;;;;;;10.57;3.30;;;;;;;1.04;69.69;99219.09;12828222;23;20020;-81
2022/01/17 23:35:19;;;;;;;10.32;2.70;;;;;;;1.02;69.39;99202.34;12833545;23;20032;-81
2022/01/17 23:40:40;;;;;;;14.95;3.13;;;;;;;0.92;68.95;99196.31;12870054;23;20017;-81
2022/01/17 23:46:02;;;;;;;14.65;2.90;;;;;;;0.92;69.35;99209.31;12849201;23;20335;-81
2022/01/17 23:51:23;;;;;;;14.02;3.63;;;;;;;0.88;69.40;99203.31;12869373;23;20016;-81
2022/01/17 23:56:45;;;;;;;12.00;2.53;;;;;;;0.90;68.96;99207.06;12828328;23;20027;-81
